Morgenster — PHMY — position and weather

sailwx.info

Track history (hours):
 
Tides and Currents Weather Stations Pressure Air Temp Water Temp Dewpoint Dewpoint Depression Visibility Wind Speed Wind Dir Waves Ship Positions

Morgenster

Last reported at 2019-Jan-30 19:32 UTC. Time now 2019-Feb-21 15:40 UTC.
Position N 18°20' W 063°19'.
Warning: this ship's position is 21 days out of date.

Length 38 m; draft 2.4 m.

Type: Sailing vessel. MMSI: 245136000.

Date/timePositionNaut miles runAvg speedWind from/ knotsBaromVisibWave heightAir tempDewpointWater temp
2019-Jan-30 19:32N 18°20' W 063°19'7 5.3
2019-Jan-30 18:14N 18°15' W 063°15'1 4.4
2019-Jan-30 17:57N 18°14' W 063°14'3 5.8
2019-Jan-30 17:29N 18°11' W 063°13'3 4.9
2019-Jan-30 16:47N 18°09' W 063°11'1 5.2
2019-Jan-30 16:30N 18°08' W 063°10'2 4.7
2019-Jan-30 16:00N 18°06' W 063°08'2 4.1
2019-Jan-30 15:30N 18°05' W 063°06'1 0.8
2019-Jan-30 14:38N 18°04' W 063°06'0 0.0
2019-Jan-30 14:20N 18°04' W 063°06'0 0.0
2019-Jan-30 13:23N 18°04' W 063°06'0 0.0
2019-Jan-30 12:50N 18°04' W 063°06'0 0.0
2019-Jan-30 11:53N 18°04' W 063°06'0 0.0
2019-Jan-30 11:23N 18°04' W 063°06'0 0.0
2019-Jan-30 10:56N 18°04' W 063°06'0 0.0
2019-Jan-30 09:44N 18°04' W 063°06'0 0.0
2019-Jan-30 09:29N 18°04' W 063°06'0 0.0
2019-Jan-30 08:59N 18°04' W 063°06'0 0.0
2019-Jan-30 08:29N 18°04' W 063°06'0 0.0
2019-Jan-30 07:59N 18°04' W 063°06'0 0.0
2019-Jan-30 07:29N 18°04' W 063°06'0 0.0
2019-Jan-30 06:59N 18°04' W 063°06'0 0.0
2019-Jan-30 05:59N 18°04' W 063°06'0 0.0
2019-Jan-30 04:47N 18°04' W 063°06'0 0.0
2019-Jan-30 04:29N 18°04' W 063°06'0 0.0
2019-Jan-30 03:59N 18°04' W 063°06'0 0.0
2019-Jan-30 03:29N 18°04' W 063°06'0 0.0
2019-Jan-30 02:17N 18°04' W 063°06'0 0.0
2019-Jan-30 01:32N 18°04' W 063°06'0 0.0
2019-Jan-30 01:08N 18°04' W 063°06'0 0.0
2019-Jan-30 00:53N 18°04' W 063°06'0 0.0
2019-Jan-30 00:08N 18°04' W 063°06'0 0.0
2019-Jan-29 23:50N 18°04' W 063°06'0 0.0
2019-Jan-29 23:23N 18°04' W 063°06'0 0.0
2019-Jan-29 22:53N 18°04' W 063°06'0 0.0
2019-Jan-29 22:26N 18°04' W 063°06'0 0.0
2019-Jan-29 21:38N 18°04' W 063°06'0 0.0
2019-Jan-29 21:26N 18°04' W 063°06'0 0.0
2019-Jan-29 20:41N 18°04' W 063°06'0 0.0
2019-Jan-29 20:26N 18°04' W 063°06'0 0.0
2019-Jan-29 19:14N 18°04' W 063°06'0 0.1
2019-Jan-29 18:56N 18°04' W 063°06'0 0.0
2019-Jan-29 18:26N 18°04' W 063°06'0 0.0
2019-Jan-29 17:56N 18°04' W 063°06'0 0.0
2019-Jan-29 17:29N 18°04' W 063°06'0 0.0
2019-Jan-29 16:44N 18°04' W 063°06'0 0.0
2019-Jan-29 16:29N 18°04' W 063°06'0 0.0
2019-Jan-29 15:59N 18°04' W 063°06'0 0.0
2019-Jan-29 15:29N 18°04' W 063°06'0 0.0
2019-Jan-29 14:59N 18°04' W 063°06'0 0.0
2019-Jan-29 14:29N 18°04' W 063°06'0 0.0
2019-Jan-29 13:50N 18°04' W 063°06'0 0.0
2019-Jan-29 13:29N 18°04' W 063°06'0 0.0
2019-Jan-29 12:47N 18°04' W 063°06'0 0.0
2019-Jan-29 12:20N 18°04' W 063°06'0 0.0
2019-Jan-29 11:23N 18°04' W 063°06'0 0.0
2019-Jan-29 10:53N 18°04' W 063°06'0 0.0
2019-Jan-29 10:23N 18°04' W 063°06'0 0.0
2019-Jan-29 09:53N 18°04' W 063°06'0 0.0
2019-Jan-29 09:23N 18°04' W 063°06'0 0.0
2019-Jan-29 08:56N 18°04' W 063°06'0 0.0
2019-Jan-29 08:26N 18°04' W 063°06'0 0.0
2019-Jan-29 07:56N 18°04' W 063°06'0 0.0
2019-Jan-29 07:26N 18°04' W 063°06'0 0.0
2019-Jan-29 06:53N 18°04' W 063°06'0 0.0
2019-Jan-29 06:11N 18°04' W 063°06'0 0.0
2019-Jan-29 05:53N 18°04' W 063°06'0 0.0
2019-Jan-29 05:23N 18°04' W 063°06'0 0.0
2019-Jan-29 04:59N 18°04' W 063°06'0 0.0
2019-Jan-29 04:26N 18°04' W 063°06'0 0.0
2019-Jan-29 03:56N 18°04' W 063°06'0 0.0
2019-Jan-29 03:29N 18°04' W 063°06'0 0.0
2019-Jan-29 02:56N 18°04' W 063°06'0 0.0
2019-Jan-29 02:26N 18°04' W 063°06'0 0.0
2019-Jan-29 01:59N 18°04' W 063°06'0 0.0
2019-Jan-29 00:59N 18°04' W 063°06'0 0.0
2019-Jan-29 00:29N 18°04' W 063°06'0 0.0
2019-Jan-28 23:59N 18°04' W 063°06'0 0.0
2019-Jan-28 23:20N 18°04' W 063°06'0 0.0
2019-Jan-28 22:35N 18°04' W 063°06'0 0.1
2019-Jan-28 22:20N 18°04' W 063°06'0 0.0
2019-Jan-28 21:50N 18°04' W 063°06'0 0.0
2019-Jan-28 21:20N 18°04' W 063°06'0 0.0
2019-Jan-28 20:38N 18°04' W 063°06'0 0.0
2019-Jan-28 20:20N 18°04' W 063°06'0 0.0
2019-Jan-28 19:53N 18°04' W 063°06'0 0.0
2019-Jan-28 19:23N 18°04' W 063°06'0 0.0
2019-Jan-28 18:50N 18°04' W 063°06'0 0.0
2019-Jan-28 18:26N 18°04' W 063°06'0 0.0
2019-Jan-28 17:53N 18°04' W 063°06'0 0.0
2019-Jan-28 17:23N 18°04' W 063°06'0 0.0
2019-Jan-28 16:56N 18°04' W 063°06'0 0.0
2019-Jan-28 16:14N 18°04' W 063°06'0 0.0
2019-Jan-28 15:56N 18°04' W 063°06'0 0.0
2019-Jan-28 15:26N 18°04' W 063°06'0 0.0
2019-Jan-28 14:56N 18°04' W 063°06'1 0.5
2019-Jan-28 13:35N 18°05' W 063°05'0 0.0
2019-Jan-28 13:05N 18°05' W 063°05'0 0.0
2019-Jan-28 12:50N 18°05' W 063°05'0 0.0
2019-Jan-28 11:51N 18°05' W 063°05'1 1.4
2019-Jan-28 11:20N 18°04' W 063°06'0 0.0
2019-Jan-28 10:35N 18°04' W 063°06'0 0.0
2019-Jan-28 10:20N 18°04' W 063°06'0 0.0
2019-Jan-28 09:53N 18°04' W 063°06'0 0.0
2019-Jan-28 09:20N 18°04' W 063°06'0 0.0
2019-Jan-28 08:50N 18°04' W 063°06'0 0.0
2019-Jan-28 08:23N 18°04' W 063°06'0 0.0
2019-Jan-28 07:41N 18°04' W 063°06'0 0.0
2019-Jan-28 07:26N 18°04' W 063°06'0 0.0
2019-Jan-28 06:53N 18°04' W 063°06'0 0.0
2019-Jan-28 06:11N 18°04' W 063°06'0 0.0
2019-Jan-28 05:14N 18°04' W 063°06'0 0.0
2019-Jan-28 04:59N 18°04' W 063°06'0 0.0
2019-Jan-28 04:29N 18°04' W 063°06'0 0.0
2019-Jan-28 03:56N 18°04' W 063°06'0 0.0
2019-Jan-28 03:29N 18°04' W 063°06'0 0.0
2019-Jan-28 02:59N 18°04' W 063°06'0 0.0
2019-Jan-28 02:29N 18°04' W 063°06'0 0.0
2019-Jan-28 01:59N 18°04' W 063°06'0 0.0
2019-Jan-28 01:29N 18°04' W 063°06'0 0.0
2019-Jan-28 00:59N 18°04' W 063°06'0 0.0
2019-Jan-28 00:29N 18°04' W 063°06'0 0.0
2019-Jan-27 23:59N 18°04' W 063°06'0 0.0
2019-Jan-27 23:29N 18°04' W 063°06'0 0.0
2019-Jan-27 22:59N 18°04' W 063°06'0 0.0
2019-Jan-27 22:20N 18°04' W 063°06'0 0.0
2019-Jan-27 21:47N 18°04' W 063°06'0 0.0
2019-Jan-27 21:20N 18°04' W 063°06'0 0.0
2019-Jan-27 20:38N 18°04' W 063°06'0 0.0
2019-Jan-27 20:23N 18°04' W 063°06'0 0.0
2019-Jan-27 19:53N 18°04' W 063°06'0 0.0
2019-Jan-27 19:20N 18°04' W 063°06'0 0.0
2019-Jan-27 18:53N 18°04' W 063°06'0 0.0
2019-Jan-27 18:11N 18°04' W 063°06'0 0.0
2019-Jan-27 17:56N 18°04' W 063°06'0 0.0
2019-Jan-27 17:11N 18°04' W 063°06'0 0.0
2019-Jan-27 16:56N 18°04' W 063°06'0 0.0
2019-Jan-27 16:08N 18°04' W 063°06'0 0.1
2019-Jan-27 15:53N 18°04' W 063°06'0 0.0
2019-Jan-27 15:29N 18°04' W 063°06'0 0.0
2019-Jan-27 14:59N 18°04' W 063°06'0 0.0
2019-Jan-27 14:23N 18°04' W 063°06'0 0.0
2019-Jan-27 13:59N 18°04' W 063°06'0 0.0
2019-Jan-27 13:29N 18°04' W 063°06'0 0.0
2019-Jan-27 12:44N 18°04' W 063°06'0 0.0
2019-Jan-27 12:26N 18°04' W 063°06'0 0.0
2019-Jan-27 11:59N 18°04' W 063°06'0 0.0
2019-Jan-27 11:29N 18°04' W 063°06'0 0.0
2019-Jan-27 10:59N 18°04' W 063°06'0 0.0
2019-Jan-27 10:17N 18°04' W 063°06'0 0.0
2019-Jan-27 09:50N 18°04' W 063°06'0 0.0
2019-Jan-27 09:20N 18°04' W 063°06'0 0.0
2019-Jan-27 08:50N 18°04' W 063°06'0 0.0
2019-Jan-27 08:20N 18°04' W 063°06'0 0.0
2019-Jan-27 07:50N 18°04' W 063°06'0 0.0
2019-Jan-27 07:20N 18°04' W 063°06'0 0.0
2019-Jan-27 06:53N 18°04' W 063°06'0 0.0
2019-Jan-27 06:20N 18°04' W 063°06'0 0.0
2019-Jan-27 05:53N 18°04' W 063°06'0 0.0
2019-Jan-27 05:20N 18°04' W 063°06'0 0.0
2019-Jan-27 04:53N 18°04' W 063°06'0 0.0
2019-Jan-27 04:26N 18°04' W 063°06'0 0.0
2019-Jan-27 03:56N 18°04' W 063°06'0 0.0
2019-Jan-27 03:26N 18°04' W 063°06'0 0.0
2019-Jan-27 02:41N 18°04' W 063°06'0 0.0
2019-Jan-27 02:26N 18°04' W 063°06'0 0.0
2019-Jan-27 01:56N 18°04' W 063°06'0 0.0
2019-Jan-27 01:29N 18°04' W 063°06'0 0.0
2019-Jan-27 00:59N 18°04' W 063°06'0 0.0
2019-Jan-27 00:29N 18°04' W 063°06'0 0.0
2019-Jan-26 23:56N 18°04' W 063°06'0 0.0
2019-Jan-26 23:29N 18°04' W 063°06'0 0.0
2019-Jan-26 22:59N 18°04' W 063°06'0 0.0
2019-Jan-26 22:26N 18°04' W 063°06'0 0.0
2019-Jan-26 21:56N 18°04' W 063°06'0 0.0
2019-Jan-26 21:29N 18°04' W 063°06'0 0.0
2019-Jan-26 20:59N 18°04' W 063°06'0 0.0
2019-Jan-26 20:29N 18°04' W 063°06'0 0.0
2019-Jan-26 19:44N 18°04' W 063°06'0 0.0
2019-Jan-26 19:29N 18°04' W 063°06'0 0.0
2019-Jan-26 18:47N 18°04' W 063°06'0 0.0
2019-Jan-26 18:20N 18°04' W 063°06'0 0.0
2019-Jan-26 17:50N 18°04' W 063°06'0 0.0
2019-Jan-26 17:05N 18°04' W 063°06'0 0.0
2019-Jan-26 16:50N 18°04' W 063°06'0 0.0
2019-Jan-26 16:23N 18°04' W 063°06'0 0.0
2019-Jan-26 15:53N 18°04' W 063°06'0 0.0
2019-Jan-26 15:23N 18°04' W 063°06'0 0.0
2019-Jan-26 14:53N 18°04' W 063°06'0 0.0
2019-Jan-26 14:26N 18°04' W 063°06'0 0.0
2019-Jan-26 13:53N 18°04' W 063°06'0 0.0
2019-Jan-26 13:23N 18°04' W 063°06'0 0.0
2019-Jan-26 12:41N 18°04' W 063°06'0 0.0
2019-Jan-26 11:53N 18°04' W 063°06'0 0.0
2019-Jan-26 11:29N 18°04' W 063°06'0 0.0
2019-Jan-26 10:59N 18°04' W 063°06'0 0.0
2019-Jan-26 10:29N 18°04' W 063°06'0 0.0
2019-Jan-26 09:44N 18°04' W 063°06'0 0.0
2019-Jan-26 09:29N 18°04' W 063°06'0 0.0
2019-Jan-26 08:56N 18°04' W 063°06'0 0.0
2019-Jan-26 08:29N 18°04' W 063°06'0 0.0
2019-Jan-26 07:59N 18°04' W 063°06'0 0.0
2019-Jan-26 07:29N 18°04' W 063°06'0 0.0
2019-Jan-26 06:47N 18°04' W 063°06'0 0.0
2019-Jan-26 06:29N 18°04' W 063°06'0 0.0
2019-Jan-26 05:59N 18°04' W 063°06'0 0.0
2019-Jan-26 05:29N 18°04' W 063°06'0 0.0
2019-Jan-26 04:59N 18°04' W 063°06'0 0.0
2019-Jan-26 04:17N 18°04' W 063°06'0 0.0
2019-Jan-26 03:50N 18°04' W 063°06'0 0.0
2019-Jan-26 03:20N 18°04' W 063°06'0 0.0
2019-Jan-26 02:50N 18°04' W 063°06'0 0.0
2019-Jan-26 02:20N 18°04' W 063°06'0 0.0
2019-Jan-26 01:53N 18°04' W 063°06'0 0.0
2019-Jan-26 01:08N 18°04' W 063°06'0 0.0
2019-Jan-26 00:53N 18°04' W 063°06'0 0.0
2019-Jan-26 00:23N 18°04' W 063°06'0 0.0
2019-Jan-25 23:56N 18°04' W 063°06'0 0.0
2019-Jan-25 23:23N 18°04' W 063°06'0 0.0
2019-Jan-25 22:56N 18°04' W 063°06'0 0.0
2019-Jan-25 22:23N 18°04' W 063°06'0 0.0
2019-Jan-25 21:56N 18°04' W 063°06'0 0.0
2019-Jan-25 21:29N 18°04' W 063°06'0 0.0
2019-Jan-25 20:59N 18°04' W 063°06'0 0.0
2019-Jan-25 20:29N 18°04' W 063°06'0 0.0
2019-Jan-25 19:59N 18°04' W 063°06'0 0.1
2019-Jan-25 19:26N 18°04' W 063°06'0 0.1
2019-Jan-25 18:59N 18°04' W 063°06'0 0.0
2019-Jan-25 18:29N 18°04' W 063°06'0 0.0
2019-Jan-25 17:59N 18°04' W 063°06'0 0.0
2019-Jan-25 17:29N 18°04' W 063°06'0 0.0
2019-Jan-25 16:59N 18°04' W 063°06'0 0.0
2019-Jan-25 16:29N 18°04' W 063°06'0 0.0
2019-Jan-25 15:59N 18°04' W 063°06'0 0.0
2019-Jan-25 15:29N 18°04' W 063°06'0 0.0
2019-Jan-25 14:50N 18°04' W 063°06'0 0.0
2019-Jan-25 14:17N 18°04' W 063°06'0 0.0
2019-Jan-25 13:50N 18°04' W 063°06'0 0.0
2019-Jan-25 13:23N 18°04' W 063°06'0 0.0
2019-Jan-25 12:53N 18°04' W 063°06'0 0.0
2019-Jan-25 12:23N 18°04' W 063°06'0 0.0
2019-Jan-25 11:53N 18°04' W 063°06'0 0.0
2019-Jan-25 11:23N 18°04' W 063°06'0 0.0
2019-Jan-25 10:53N 18°04' W 063°06'0 0.0
2019-Jan-25 10:26N 18°04' W 063°06'0 0.0
2019-Jan-25 09:56N 18°04' W 063°06'0 0.0
2019-Jan-25 09:23N 18°04' W 063°06'0 0.0
2019-Jan-25 08:41N 18°04' W 063°06'0 0.0
2019-Jan-25 08:26N 18°04' W 063°06'0 0.0
2019-Jan-25 07:56N 18°04' W 063°06'0 0.0
2019-Jan-25 07:08N 18°04' W 063°06'0 0.0
2019-Jan-25 06:59N 18°04' W 063°06'0 0.0
2019-Jan-25 06:26N 18°04' W 063°06'0 0.0
2019-Jan-25 05:56N 18°04' W 063°06'0 0.0
2019-Jan-25 05:29N 18°04' W 063°06'0 0.0
2019-Jan-25 04:59N 18°04' W 063°06'0 0.0
2019-Jan-25 04:02N 18°04' W 063°06'0 0.0
2019-Jan-25 03:29N 18°04' W 063°06'0 0.0
2019-Jan-25 02:59N 18°04' W 063°06'0 0.0
2019-Jan-25 02:29N 18°04' W 063°06'0 0.0
2019-Jan-25 01:59N 18°04' W 063°06'0 0.0
2019-Jan-25 01:29N 18°04' W 063°06'0 0.0
2019-Jan-25 00:47N 18°04' W 063°06'0 0.0
2019-Jan-25 00:17N 18°04' W 063°06'0 0.0
2019-Jan-24 23:50N 18°04' W 063°06'0 0.0
2019-Jan-24 23:23N 18°04' W 063°06'0 0.0
2019-Jan-24 22:53N 18°04' W 063°06'0 0.0
2019-Jan-24 22:17N 18°04' W 063°06'0 0.0
2019-Jan-24 21:50N 18°04' W 063°06'0 0.0
2019-Jan-24 21:20N 18°04' W 063°06'0 0.0
2019-Jan-24 20:53N 18°04' W 063°06'0 0.0
2019-Jan-24 20:23N 18°04' W 063°06'0 0.0
2019-Jan-24 19:56N 18°04' W 063°06'0 0.0
2019-Jan-24 19:23N 18°04' W 063°06'0 0.0
2019-Jan-24 18:56N 18°04' W 063°06'0 0.0
2019-Jan-24 18:26N 18°04' W 063°06'0 0.0
2019-Jan-24 17:56N 18°04' W 063°06'0 0.0
2019-Jan-24 17:29N 18°04' W 063°06'0 0.0
2019-Jan-24 16:38N 18°04' W 063°06'0 0.0
2019-Jan-24 16:29N 18°04' W 063°06'0 0.0
2019-Jan-24 15:59N 18°04' W 063°06'0 0.0
2019-Jan-24 15:17N 18°04' W 063°06'0 0.0
2019-Jan-24 13:59N 18°04' W 063°06'0 0.0
2019-Jan-24 13:17N 18°04' W 063°06'0 0.0
2019-Jan-24 12:14N 18°04' W 063°06'0 0.0
2019-Jan-24 11:47N 18°04' W 063°06'0 0.0
2019-Jan-24 11:14N 18°04' W 063°06'0 0.0
2019-Jan-24 10:47N 18°04' W 063°06'0 0.0
2019-Jan-24 10:20N 18°04' W 063°06'0 0.0
2019-Jan-24 09:50N 18°04' W 063°06'0 0.0
2019-Jan-24 09:17N 18°04' W 063°06'0 0.0
2019-Jan-24 08:52N 18°04' W 063°06'0 0.0
2019-Jan-24 08:23N 18°04' W 063°06'0 0.0
2019-Jan-24 07:53N 18°04' W 063°06'0 0.0
2019-Jan-24 07:04N 18°04' W 063°06'0 0.0
2019-Jan-24 06:40N 18°04' W 063°06'0 0.1
2019-Jan-24 06:20N 18°04' W 063°06'0 0.0
2019-Jan-24 05:56N 18°04' W 063°06'0 0.0
2019-Jan-24 05:22N 18°04' W 063°06'0 0.0
2019-Jan-24 04:40N 18°04' W 063°06'0 0.0
2019-Jan-24 03:59N 18°04' W 063°06'0 0.0
2019-Jan-24 02:41N 18°04' W 063°06'0 0.0
2019-Jan-24 01:58N 18°04' W 063°06'0 0.0
2019-Jan-24 01:28N 18°04' W 063°06'0 0.0
2019-Jan-24 00:58N 18°04' W 063°06'0 0.0
2019-Jan-24 00:29N 18°04' W 063°06'0 0.0
2019-Jan-23 23:17N 18°04' W 063°06'0 0.0
2019-Jan-23 22:58N 18°04' W 063°06'0 0.0
2019-Jan-23 22:17N 18°04' W 063°06'0 0.0
2019-Jan-23 21:46N 18°04' W 063°06'0 0.0
2019-Jan-23 21:13N 18°04' W 063°06'0 0.0
2019-Jan-23 20:20N 18°04' W 063°06'0 0.0
2019-Jan-23 19:35N 18°04' W 063°06'0 0.0
2019-Jan-23 19:23N 18°04' W 063°06'0 0.0
2019-Jan-23 18:50N 18°04' W 063°06'0 0.0
2019-Jan-23 18:23N 18°04' W 063°06'0 0.0
2019-Jan-23 17:52N 18°04' W 063°06'0 0.0
2019-Jan-23 17:20N 18°04' W 063°06'0 0.0
2019-Jan-23 16:37N 18°04' W 063°06'0 0.1
2019-Jan-23 16:22N 18°04' W 063°06'0 0.0
2019-Jan-23 15:41N 18°04' W 063°06'0 0.0
2019-Jan-23 15:25N 18°04' W 063°06'0 0.0
2019-Jan-23 14:41N 18°04' W 063°06'0 0.0
2019-Jan-23 14:22N 18°04' W 063°06'0 0.0
2019-Jan-23 13:59N 18°04' W 063°06'0 0.0
2019-Jan-23 13:10N 18°04' W 063°06'0 0.0
2019-Jan-23 12:41N 18°04' W 063°06'0 0.0
2019-Jan-23 12:26N 18°04' W 063°06'0 0.0
2019-Jan-23 11:55N 18°04' W 063°06'0 0.0
2019-Jan-23 11:17N 18°04' W 063°06'0 0.0
2019-Jan-23 10:41N 18°04' W 063°06'0 0.0
2019-Jan-23 10:28N 18°04' W 063°06'0 0.0
2019-Jan-23 09:44N 18°04' W 063°06'0 0.0
2019-Jan-23 09:16N 18°04' W 063°06'0 0.0
2019-Jan-23 08:44N 18°04' W 063°06'0 0.0
2019-Jan-23 08:16N 18°04' W 063°06'0 0.0
2019-Jan-23 07:59N 18°04' W 063°06'0 0.0
2019-Jan-23 07:20N 18°04' W 063°06'0 0.0
2019-Jan-23 06:50N 18°04' W 063°06'0 0.0
2019-Jan-23 06:17N 18°04' W 063°06'0 0.0
2019-Jan-23 05:50N 18°04' W 063°06'0 0.0
2019-Jan-23 05:22N 18°04' W 063°06'0 0.0
2019-Jan-23 04:53N 18°04' W 063°06'0 0.0
2019-Jan-23 04:07N 18°04' W 063°06'0 0.0
2019-Jan-23 03:53N 18°04' W 063°06'0 0.0
2019-Jan-23 03:23N 18°04' W 063°06'0 0.0
2019-Jan-23 02:50N 18°04' W 063°06'0 0.0
2019-Jan-23 02:26N 18°04' W 063°06'0 0.0
2019-Jan-23 01:56N 18°04' W 063°06'0 0.0
2019-Jan-23 01:26N 18°04' W 063°06'0 0.0
2019-Jan-23 00:56N 18°04' W 063°06'0 0.0
2019-Jan-23 00:26N 18°04' W 063°06'0 0.0
2019-Jan-22 23:59N 18°04' W 063°06'0 0.0
2019-Jan-22 23:11N 18°04' W 063°06'0 0.0
2019-Jan-22 22:59N 18°04' W 063°06'0 0.0
2019-Jan-22 22:28N 18°04' W 063°06'0 0.0
2019-Jan-22 21:29N 18°04' W 063°06'0 0.0
2019-Jan-22 20:59N 18°04' W 063°06'0 0.0
2019-Jan-22 20:29N 18°04' W 063°06'0 0.0
2019-Jan-22 19:59N 18°04' W 063°06'0 0.0
2019-Jan-22 18:59N 18°04' W 063°06'0 0.0
2019-Jan-22 18:28N 18°04' W 063°06'0 0.0
2019-Jan-22 17:47N 18°04' W 063°06'0 0.0
2019-Jan-22 17:29N 18°04' W 063°06'0 0.0
2019-Jan-22 16:20N 18°04' W 063°06'0 0.0
2019-Jan-22 15:52N 18°04' W 063°06'0 0.0
2019-Jan-22 15:19N 18°04' W 063°06'0 0.0
2019-Jan-22 14:50N 18°04' W 063°06'0 0.0
2019-Jan-22 14:23N 18°04' W 063°06'0 0.0
2019-Jan-22 13:50N 18°04' W 063°06'0 0.0
2019-Jan-22 13:23N 18°04' W 063°06'0 0.0
2019-Jan-22 12:52N 18°04' W 063°06'0 0.0
2019-Jan-22 12:22N 18°04' W 063°06'0 0.0
2019-Jan-22 11:53N 18°04' W 063°06'0 0.0
2019-Jan-22 11:26N 18°04' W 063°06'0 0.0
2019-Jan-22 10:38N 18°04' W 063°06'0 0.0
2019-Jan-22 10:25N 18°04' W 063°06'0 0.0
2019-Jan-22 09:59N 18°04' W 063°06'0 0.0
2019-Jan-22 09:26N 18°04' W 063°06'0 0.0
2019-Jan-22 08:56N 18°04' W 063°06'0 0.0
2019-Jan-22 08:29N 18°04' W 063°06'0 0.0
2019-Jan-22 07:56N 18°04' W 063°06'0 0.0
2019-Jan-22 07:28N 18°04' W 063°06'0 0.0
2019-Jan-22 06:56N 18°04' W 063°06'0 0.0
2019-Jan-22 06:17N 18°04' W 063°06'0 0.0
2019-Jan-22 05:47N 18°04' W 063°06'0 0.0
2019-Jan-22 05:28N 18°04' W 063°06'0 0.0
2019-Jan-22 04:58N 18°04' W 063°06'0 0.0
2019-Jan-22 04:20N 18°04' W 063°06'0 0.0
2019-Jan-22 03:58N 18°04' W 063°06'0 0.0
2019-Jan-22 02:46N 18°04' W 063°06'0 0.1
2019-Jan-22 02:04N 18°04' W 063°06'0 0.0
2019-Jan-22 01:34N 18°04' W 063°06'0 0.1
2019-Jan-22 01:07N 18°04' W 063°06'0 0.0
2019-Jan-22 00:53N 18°04' W 063°06'0 0.1
2019-Jan-22 00:22N 18°04' W 063°06'0 0.0
2019-Jan-21 23:35N 18°04' W 063°06'0 0.0
2019-Jan-21 23:19N 18°04' W 063°06'0 0.0
2019-Jan-21 22:52N 18°04' W 063°06'0 0.0
2019-Jan-21 22:11N 18°04' W 063°06'0 0.1
2019-Jan-21 21:53N 18°04' W 063°06'1 0.7
2019-Jan-21 21:00N 18°05' W 063°05'  
Track history (hours):
 
Tides and Currents Weather Stations Pressure Air Temp Water Temp Dewpoint Dewpoint Depression Visibility Wind Speed Wind Dir Waves Ship Positions

Morgenster

Last reported at 2019-Jan-30 19:32 UTC. Time now 2019-Feb-21 15:40 UTC.
Position N 18°20' W 063°19'.
Warning: this ship's position is 21 days out of date.

Length 38 m; draft 2.4 m.

Type: Sailing vessel. MMSI: 245136000.

Date/timePositionNaut miles runAvg speedWind from/ knotsBaromVisibWave heightAir tempDewpointWater temp
2019-Jan-30 19:32N 18°20' W 063°19'7 5.3
2019-Jan-30 18:14N 18°15' W 063°15'1 4.4
2019-Jan-30 17:57N 18°14' W 063°14'3 5.8
2019-Jan-30 17:29N 18°11' W 063°13'3 4.9
2019-Jan-30 16:47N 18°09' W 063°11'1 5.2
2019-Jan-30 16:30N 18°08' W 063°10'2 4.7
2019-Jan-30 16:00N 18°06' W 063°08'2 4.1
2019-Jan-30 15:30N 18°05' W 063°06'1 0.8
2019-Jan-30 14:38N 18°04' W 063°06'0 0.0
2019-Jan-30 14:20N 18°04' W 063°06'0 0.0
2019-Jan-30 13:23N 18°04' W 063°06'0 0.0
2019-Jan-30 12:50N 18°04' W 063°06'0 0.0
2019-Jan-30 11:53N 18°04' W 063°06'0 0.0
2019-Jan-30 11:23N 18°04' W 063°06'0 0.0
2019-Jan-30 10:56N 18°04' W 063°06'0 0.0
2019-Jan-30 09:44N 18°04' W 063°06'0 0.0
2019-Jan-30 09:29N 18°04' W 063°06'0 0.0
2019-Jan-30 08:59N 18°04' W 063°06'0 0.0
2019-Jan-30 08:29N 18°04' W 063°06'0 0.0
2019-Jan-30 07:59N 18°04' W 063°06'0 0.0
2019-Jan-30 07:29N 18°04' W 063°06'0 0.0
2019-Jan-30 06:59N 18°04' W 063°06'0 0.0
2019-Jan-30 05:59N 18°04' W 063°06'0 0.0
2019-Jan-30 04:47N 18°04' W 063°06'0 0.0
2019-Jan-30 04:29N 18°04' W 063°06'0 0.0
2019-Jan-30 03:59N 18°04' W 063°06'0 0.0
2019-Jan-30 03:29N 18°04' W 063°06'0 0.0
2019-Jan-30 02:17N 18°04' W 063°06'0 0.0
2019-Jan-30 01:32N 18°04' W 063°06'0 0.0
2019-Jan-30 01:08N 18°04' W 063°06'0 0.0
2019-Jan-30 00:53N 18°04' W 063°06'0 0.0
2019-Jan-30 00:08N 18°04' W 063°06'0 0.0
2019-Jan-29 23:50N 18°04' W 063°06'0 0.0
2019-Jan-29 23:23N 18°04' W 063°06'0 0.0
2019-Jan-29 22:53N 18°04' W 063°06'0 0.0
2019-Jan-29 22:26N 18°04' W 063°06'0 0.0
2019-Jan-29 21:38N 18°04' W 063°06'0 0.0
2019-Jan-29 21:26N 18°04' W 063°06'0 0.0
2019-Jan-29 20:41N 18°04' W 063°06'0 0.0
2019-Jan-29 20:26N 18°04' W 063°06'0 0.0
2019-Jan-29 19:14N 18°04' W 063°06'0 0.1
2019-Jan-29 18:56N 18°04' W 063°06'0 0.0
2019-Jan-29 18:26N 18°04' W 063°06'0 0.0
2019-Jan-29 17:56N 18°04' W 063°06'0 0.0
2019-Jan-29 17:29N 18°04' W 063°06'0 0.0
2019-Jan-29 16:44N 18°04' W 063°06'0 0.0
2019-Jan-29 16:29N 18°04' W 063°06'0 0.0
2019-Jan-29 15:59N 18°04' W 063°06'0 0.0
2019-Jan-29 15:29N 18°04' W 063°06'0 0.0
2019-Jan-29 14:59N 18°04' W 063°06'0 0.0
2019-Jan-29 14:29N 18°04' W 063°06'0 0.0
2019-Jan-29 13:50N 18°04' W 063°06'0 0.0
2019-Jan-29 13:29N 18°04' W 063°06'0 0.0
2019-Jan-29 12:47N 18°04' W 063°06'0 0.0
2019-Jan-29 12:20N 18°04' W 063°06'0 0.0
2019-Jan-29 11:23N 18°04' W 063°06'0 0.0
2019-Jan-29 10:53N 18°04' W 063°06'0 0.0
2019-Jan-29 10:23N 18°04' W 063°06'0 0.0
2019-Jan-29 09:53N 18°04' W 063°06'0 0.0
2019-Jan-29 09:23N 18°04' W 063°06'0 0.0
2019-Jan-29 08:56N 18°04' W 063°06'0 0.0
2019-Jan-29 08:26N 18°04' W 063°06'0 0.0
2019-Jan-29 07:56N 18°04' W 063°06'0 0.0
2019-Jan-29 07:26N 18°04' W 063°06'0 0.0
2019-Jan-29 06:53N 18°04' W 063°06'0 0.0
2019-Jan-29 06:11N 18°04' W 063°06'0 0.0
2019-Jan-29 05:53N 18°04' W 063°06'0 0.0
2019-Jan-29 05:23N 18°04' W 063°06'0 0.0
2019-Jan-29 04:59N 18°04' W 063°06'0 0.0
2019-Jan-29 04:26N 18°04' W 063°06'0 0.0
2019-Jan-29 03:56N 18°04' W 063°06'0 0.0
2019-Jan-29 03:29N 18°04' W 063°06'0 0.0
2019-Jan-29 02:56N 18°04' W 063°06'0 0.0
2019-Jan-29 02:26N 18°04' W 063°06'0 0.0
2019-Jan-29 01:59N 18°04' W 063°06'0 0.0
2019-Jan-29 00:59N 18°04' W 063°06'0 0.0
2019-Jan-29 00:29N 18°04' W 063°06'0 0.0
2019-Jan-28 23:59N 18°04' W 063°06'0 0.0
2019-Jan-28 23:20N 18°04' W 063°06'0 0.0
2019-Jan-28 22:35N 18°04' W 063°06'0 0.1
2019-Jan-28 22:20N 18°04' W 063°06'0 0.0
2019-Jan-28 21:50N 18°04' W 063°06'0 0.0
2019-Jan-28 21:20N 18°04' W 063°06'0 0.0
2019-Jan-28 20:38N 18°04' W 063°06'0 0.0
2019-Jan-28 20:20N 18°04' W 063°06'0 0.0
2019-Jan-28 19:53N 18°04' W 063°06'0 0.0
2019-Jan-28 19:23N 18°04' W 063°06'0 0.0
2019-Jan-28 18:50N 18°04' W 063°06'0 0.0
2019-Jan-28 18:26N 18°04' W 063°06'0 0.0
2019-Jan-28 17:53N 18°04' W 063°06'0 0.0
2019-Jan-28 17:23N 18°04' W 063°06'0 0.0
2019-Jan-28 16:56N 18°04' W 063°06'0 0.0
2019-Jan-28 16:14N 18°04' W 063°06'0 0.0
2019-Jan-28 15:56N 18°04' W 063°06'0 0.0
2019-Jan-28 15:26N 18°04' W 063°06'0 0.0
2019-Jan-28 14:56N 18°04' W 063°06'1 0.5
2019-Jan-28 13:35N 18°05' W 063°05'0 0.0
2019-Jan-28 13:05N 18°05' W 063°05'0 0.0
2019-Jan-28 12:50N 18°05' W 063°05'0 0.0
2019-Jan-28 11:51N 18°05' W 063°05'1 1.4
2019-Jan-28 11:20N 18°04' W 063°06'0 0.0
2019-Jan-28 10:35N 18°04' W 063°06'0 0.0
2019-Jan-28 10:20N 18°04' W 063°06'0 0.0
2019-Jan-28 09:53N 18°04' W 063°06'0 0.0
2019-Jan-28 09:20N 18°04' W 063°06'0 0.0
2019-Jan-28 08:50N 18°04' W 063°06'0 0.0
2019-Jan-28 08:23N 18°04' W 063°06'0 0.0
2019-Jan-28 07:41N 18°04' W 063°06'0 0.0
2019-Jan-28 07:26N 18°04' W 063°06'0 0.0
2019-Jan-28 06:53N 18°04' W 063°06'0 0.0
2019-Jan-28 06:11N 18°04' W 063°06'0 0.0
2019-Jan-28 05:14N 18°04' W 063°06'0 0.0
2019-Jan-28 04:59N 18°04' W 063°06'0 0.0
2019-Jan-28 04:29N 18°04' W 063°06'0 0.0
2019-Jan-28 03:56N 18°04' W 063°06'0 0.0
2019-Jan-28 03:29N 18°04' W 063°06'0 0.0
2019-Jan-28 02:59N 18°04' W 063°06'0 0.0
2019-Jan-28 02:29N 18°04' W 063°06'0 0.0
2019-Jan-28 01:59N 18°04' W 063°06'0 0.0
2019-Jan-28 01:29N 18°04' W 063°06'0 0.0
2019-Jan-28 00:59N 18°04' W 063°06'0 0.0
2019-Jan-28 00:29N 18°04' W 063°06'0 0.0
2019-Jan-27 23:59N 18°04' W 063°06'0 0.0
2019-Jan-27 23:29N 18°04' W 063°06'0 0.0
2019-Jan-27 22:59N 18°04' W 063°06'0 0.0
2019-Jan-27 22:20N 18°04' W 063°06'0 0.0
2019-Jan-27 21:47N 18°04' W 063°06'0 0.0
2019-Jan-27 21:20N 18°04' W 063°06'0 0.0
2019-Jan-27 20:38N 18°04' W 063°06'0 0.0
2019-Jan-27 20:23N 18°04' W 063°06'0 0.0
2019-Jan-27 19:53N 18°04' W 063°06'0 0.0
2019-Jan-27 19:20N 18°04' W 063°06'0 0.0
2019-Jan-27 18:53N 18°04' W 063°06'0 0.0
2019-Jan-27 18:11N 18°04' W 063°06'0 0.0
2019-Jan-27 17:56N 18°04' W 063°06'0 0.0
2019-Jan-27 17:11N 18°04' W 063°06'0 0.0
2019-Jan-27 16:56N 18°04' W 063°06'0 0.0
2019-Jan-27 16:08N 18°04' W 063°06'0 0.1
2019-Jan-27 15:53N 18°04' W 063°06'0 0.0
2019-Jan-27 15:29N 18°04' W 063°06'0 0.0
2019-Jan-27 14:59N 18°04' W 063°06'0 0.0
2019-Jan-27 14:23N 18°04' W 063°06'0 0.0
2019-Jan-27 13:59N 18°04' W 063°06'0 0.0
2019-Jan-27 13:29N 18°04' W 063°06'0 0.0
2019-Jan-27 12:44N 18°04' W 063°06'0 0.0
2019-Jan-27 12:26N 18°04' W 063°06'0 0.0
2019-Jan-27 11:59N 18°04' W 063°06'0 0.0
2019-Jan-27 11:29N 18°04' W 063°06'0 0.0
2019-Jan-27 10:59N 18°04' W 063°06'0 0.0
2019-Jan-27 10:17N 18°04' W 063°06'0 0.0
2019-Jan-27 09:50N 18°04' W 063°06'0 0.0
2019-Jan-27 09:20N 18°04' W 063°06'0 0.0
2019-Jan-27 08:50N 18°04' W 063°06'0 0.0
2019-Jan-27 08:20N 18°04' W 063°06'0 0.0
2019-Jan-27 07:50N 18°04' W 063°06'0 0.0
2019-Jan-27 07:20N 18°04' W 063°06'0 0.0
2019-Jan-27 06:53N 18°04' W 063°06'0 0.0
2019-Jan-27 06:20N 18°04' W 063°06'0 0.0
2019-Jan-27 05:53N 18°04' W 063°06'0 0.0
2019-Jan-27 05:20N 18°04' W 063°06'0 0.0
2019-Jan-27 04:53N 18°04' W 063°06'0 0.0
2019-Jan-27 04:26N 18°04' W 063°06'0 0.0
2019-Jan-27 03:56N 18°04' W 063°06'0 0.0
2019-Jan-27 03:26N 18°04' W 063°06'0 0.0
2019-Jan-27 02:41N 18°04' W 063°06'0 0.0
2019-Jan-27 02:26N 18°04' W 063°06'0 0.0
2019-Jan-27 01:56N 18°04' W 063°06'0 0.0
2019-Jan-27 01:29N 18°04' W 063°06'0 0.0
2019-Jan-27 00:59N 18°04' W 063°06'0 0.0
2019-Jan-27 00:29N 18°04' W 063°06'0 0.0
2019-Jan-26 23:56N 18°04' W 063°06'0 0.0
2019-Jan-26 23:29N 18°04' W 063°06'0 0.0
2019-Jan-26 22:59N 18°04' W 063°06'0 0.0
2019-Jan-26 22:26N 18°04' W 063°06'0 0.0
2019-Jan-26 21:56N 18°04' W 063°06'0 0.0
2019-Jan-26 21:29N 18°04' W 063°06'0 0.0
2019-Jan-26 20:59N 18°04' W 063°06'0 0.0
2019-Jan-26 20:29N 18°04' W 063°06'0 0.0
2019-Jan-26 19:44N 18°04' W 063°06'0 0.0
2019-Jan-26 19:29N 18°04' W 063°06'0 0.0
2019-Jan-26 18:47N 18°04' W 063°06'0 0.0
2019-Jan-26 18:20N 18°04' W 063°06'0 0.0
2019-Jan-26 17:50N 18°04' W 063°06'0 0.0
2019-Jan-26 17:05N 18°04' W 063°06'0 0.0
2019-Jan-26 16:50N 18°04' W 063°06'0 0.0
2019-Jan-26 16:23N 18°04' W 063°06'0 0.0
2019-Jan-26 15:53N 18°04' W 063°06'0 0.0
2019-Jan-26 15:23N 18°04' W 063°06'0 0.0
2019-Jan-26 14:53N 18°04' W 063°06'0 0.0
2019-Jan-26 14:26N 18°04' W 063°06'0 0.0
2019-Jan-26 13:53N 18°04' W 063°06'0 0.0
2019-Jan-26 13:23N 18°04' W 063°06'0 0.0
2019-Jan-26 12:41N 18°04' W 063°06'0 0.0
2019-Jan-26 11:53N 18°04' W 063°06'0 0.0
2019-Jan-26 11:29N 18°04' W 063°06'0 0.0
2019-Jan-26 10:59N 18°04' W 063°06'0 0.0
2019-Jan-26 10:29N 18°04' W 063°06'0 0.0
2019-Jan-26 09:44N 18°04' W 063°06'0 0.0
2019-Jan-26 09:29N 18°04' W 063°06'0 0.0
2019-Jan-26 08:56N 18°04' W 063°06'0 0.0
2019-Jan-26 08:29N 18°04' W 063°06'0 0.0
2019-Jan-26 07:59N 18°04' W 063°06'0 0.0
2019-Jan-26 07:29N 18°04' W 063°06'0 0.0
2019-Jan-26 06:47N 18°04' W 063°06'0 0.0
2019-Jan-26 06:29N 18°04' W 063°06'0 0.0
2019-Jan-26 05:59N 18°04' W 063°06'0 0.0
2019-Jan-26 05:29N 18°04' W 063°06'0 0.0
2019-Jan-26 04:59N 18°04' W 063°06'0 0.0
2019-Jan-26 04:17N 18°04' W 063°06'0 0.0
2019-Jan-26 03:50N 18°04' W 063°06'0 0.0
2019-Jan-26 03:20N 18°04' W 063°06'0 0.0
2019-Jan-26 02:50N 18°04' W 063°06'0 0.0
2019-Jan-26 02:20N 18°04' W 063°06'0 0.0
2019-Jan-26 01:53N 18°04' W 063°06'0 0.0
2019-Jan-26 01:08N 18°04' W 063°06'0 0.0
2019-Jan-26 00:53N 18°04' W 063°06'0 0.0
2019-Jan-26 00:23N 18°04' W 063°06'0 0.0
2019-Jan-25 23:56N 18°04' W 063°06'0 0.0
2019-Jan-25 23:23N 18°04' W 063°06'0 0.0
2019-Jan-25 22:56N 18°04' W 063°06'0 0.0
2019-Jan-25 22:23N 18°04' W 063°06'0 0.0
2019-Jan-25 21:56N 18°04' W 063°06'0 0.0
2019-Jan-25 21:29N 18°04' W 063°06'0 0.0
2019-Jan-25 20:59N 18°04' W 063°06'0 0.0
2019-Jan-25 20:29N 18°04' W 063°06'0 0.0
2019-Jan-25 19:59N 18°04' W 063°06'0 0.1
2019-Jan-25 19:26N 18°04' W 063°06'0 0.1
2019-Jan-25 18:59N 18°04' W 063°06'0 0.0
2019-Jan-25 18:29N 18°04' W 063°06'0 0.0
2019-Jan-25 17:59N 18°04' W 063°06'0 0.0
2019-Jan-25 17:29N 18°04' W 063°06'0 0.0
2019-Jan-25 16:59N 18°04' W 063°06'0 0.0
2019-Jan-25 16:29N 18°04' W 063°06'0 0.0
2019-Jan-25 15:59N 18°04' W 063°06'0 0.0
2019-Jan-25 15:29N 18°04' W 063°06'0 0.0
2019-Jan-25 14:50N 18°04' W 063°06'0 0.0
2019-Jan-25 14:17N 18°04' W 063°06'0 0.0
2019-Jan-25 13:50N 18°04' W 063°06'0 0.0
2019-Jan-25 13:23N 18°04' W 063°06'0 0.0
2019-Jan-25 12:53N 18°04' W 063°06'0 0.0
2019-Jan-25 12:23N 18°04' W 063°06'0 0.0
2019-Jan-25 11:53N 18°04' W 063°06'0 0.0
2019-Jan-25 11:23N 18°04' W 063°06'0 0.0
2019-Jan-25 10:53N 18°04' W 063°06'0 0.0
2019-Jan-25 10:26N 18°04' W 063°06'0 0.0
2019-Jan-25 09:56N 18°04' W 063°06'0 0.0
2019-Jan-25 09:23N 18°04' W 063°06'0 0.0
2019-Jan-25 08:41N 18°04' W 063°06'0 0.0
2019-Jan-25 08:26N 18°04' W 063°06'0 0.0
2019-Jan-25 07:56N 18°04' W 063°06'0 0.0
2019-Jan-25 07:08N 18°04' W 063°06'0 0.0
2019-Jan-25 06:59N 18°04' W 063°06'0 0.0
2019-Jan-25 06:26N 18°04' W 063°06'0 0.0
2019-Jan-25 05:56N 18°04' W 063°06'0 0.0
2019-Jan-25 05:29N 18°04' W 063°06'0 0.0
2019-Jan-25 04:59N 18°04' W 063°06'0 0.0
2019-Jan-25 04:02N 18°04' W 063°06'0 0.0
2019-Jan-25 03:29N 18°04' W 063°06'0 0.0
2019-Jan-25 02:59N 18°04' W 063°06'0 0.0
2019-Jan-25 02:29N 18°04' W 063°06'0 0.0
2019-Jan-25 01:59N 18°04' W 063°06'0 0.0
2019-Jan-25 01:29N 18°04' W 063°06'0 0.0
2019-Jan-25 00:47N 18°04' W 063°06'0 0.0
2019-Jan-25 00:17N 18°04' W 063°06'0 0.0
2019-Jan-24 23:50N 18°04' W 063°06'0 0.0
2019-Jan-24 23:23N 18°04' W 063°06'0 0.0
2019-Jan-24 22:53N 18°04' W 063°06'0 0.0
2019-Jan-24 22:17N 18°04' W 063°06'0 0.0
2019-Jan-24 21:50N 18°04' W 063°06'0 0.0
2019-Jan-24 21:20N 18°04' W 063°06'0 0.0
2019-Jan-24 20:53N 18°04' W 063°06'0 0.0
2019-Jan-24 20:23N 18°04' W 063°06'0 0.0
2019-Jan-24 19:56N 18°04' W 063°06'0 0.0
2019-Jan-24 19:23N 18°04' W 063°06'0 0.0
2019-Jan-24 18:56N 18°04' W 063°06'0 0.0
2019-Jan-24 18:26N 18°04' W 063°06'0 0.0
2019-Jan-24 17:56N 18°04' W 063°06'0 0.0
2019-Jan-24 17:29N 18°04' W 063°06'0 0.0
2019-Jan-24 16:38N 18°04' W 063°06'0 0.0
2019-Jan-24 16:29N 18°04' W 063°06'0 0.0
2019-Jan-24 15:59N 18°04' W 063°06'0 0.0
2019-Jan-24 15:17N 18°04' W 063°06'0 0.0
2019-Jan-24 13:59N 18°04' W 063°06'0 0.0
2019-Jan-24 13:17N 18°04' W 063°06'0 0.0
2019-Jan-24 12:14N 18°04' W 063°06'0 0.0
2019-Jan-24 11:47N 18°04' W 063°06'0 0.0
2019-Jan-24 11:14N 18°04' W 063°06'0 0.0
2019-Jan-24 10:47N 18°04' W 063°06'0 0.0
2019-Jan-24 10:20N 18°04' W 063°06'0 0.0
2019-Jan-24 09:50N 18°04' W 063°06'0 0.0
2019-Jan-24 09:17N 18°04' W 063°06'0 0.0
2019-Jan-24 08:52N 18°04' W 063°06'0 0.0
2019-Jan-24 08:23N 18°04' W 063°06'0 0.0
2019-Jan-24 07:53N 18°04' W 063°06'0 0.0
2019-Jan-24 07:04N 18°04' W 063°06'0 0.0
2019-Jan-24 06:40N 18°04' W 063°06'0 0.1
2019-Jan-24 06:20N 18°04' W 063°06'0 0.0
2019-Jan-24 05:56N 18°04' W 063°06'0 0.0
2019-Jan-24 05:22N 18°04' W 063°06'0 0.0
2019-Jan-24 04:40N 18°04' W 063°06'0 0.0
2019-Jan-24 03:59N 18°04' W 063°06'0 0.0
2019-Jan-24 02:41N 18°04' W 063°06'0 0.0
2019-Jan-24 01:58N 18°04' W 063°06'0 0.0
2019-Jan-24 01:28N 18°04' W 063°06'0 0.0
2019-Jan-24 00:58N 18°04' W 063°06'0 0.0
2019-Jan-24 00:29N 18°04' W 063°06'0 0.0
2019-Jan-23 23:17N 18°04' W 063°06'0 0.0
2019-Jan-23 22:58N 18°04' W 063°06'0 0.0
2019-Jan-23 22:17N 18°04' W 063°06'0 0.0
2019-Jan-23 21:46N 18°04' W 063°06'0 0.0
2019-Jan-23 21:13N 18°04' W 063°06'0 0.0
2019-Jan-23 20:20N 18°04' W 063°06'0 0.0
2019-Jan-23 19:35N 18°04' W 063°06'0 0.0
2019-Jan-23 19:23N 18°04' W 063°06'0 0.0
2019-Jan-23 18:50N 18°04' W 063°06'0 0.0
2019-Jan-23 18:23N 18°04' W 063°06'0 0.0
2019-Jan-23 17:52N 18°04' W 063°06'0 0.0
2019-Jan-23 17:20N 18°04' W 063°06'0 0.0
2019-Jan-23 16:37N 18°04' W 063°06'0 0.1
2019-Jan-23 16:22N 18°04' W 063°06'0 0.0
2019-Jan-23 15:41N 18°04' W 063°06'0 0.0
2019-Jan-23 15:25N 18°04' W 063°06'0 0.0
2019-Jan-23 14:41N 18°04' W 063°06'0 0.0
2019-Jan-23 14:22N 18°04' W 063°06'0 0.0
2019-Jan-23 13:59N 18°04' W 063°06'0 0.0
2019-Jan-23 13:10N 18°04' W 063°06'0 0.0
2019-Jan-23 12:41N 18°04' W 063°06'0 0.0
2019-Jan-23 12:26N 18°04' W 063°06'0 0.0
2019-Jan-23 11:55N 18°04' W 063°06'0 0.0
2019-Jan-23 11:17N 18°04' W 063°06'0 0.0
2019-Jan-23 10:41N 18°04' W 063°06'0 0.0
2019-Jan-23 10:28N 18°04' W 063°06'0 0.0
2019-Jan-23 09:44N 18°04' W 063°06'0 0.0
2019-Jan-23 09:16N 18°04' W 063°06'0 0.0
2019-Jan-23 08:44N 18°04' W 063°06'0 0.0
2019-Jan-23 08:16N 18°04' W 063°06'0 0.0
2019-Jan-23 07:59N 18°04' W 063°06'0 0.0
2019-Jan-23 07:20N 18°04' W 063°06'0 0.0
2019-Jan-23 06:50N 18°04' W 063°06'0 0.0
2019-Jan-23 06:17N 18°04' W 063°06'0 0.0
2019-Jan-23 05:50N 18°04' W 063°06'0 0.0
2019-Jan-23 05:22N 18°04' W 063°06'0 0.0
2019-Jan-23 04:53N 18°04' W 063°06'0 0.0
2019-Jan-23 04:07N 18°04' W 063°06'0 0.0
2019-Jan-23 03:53N 18°04' W 063°06'0 0.0
2019-Jan-23 03:23N 18°04' W 063°06'0 0.0
2019-Jan-23 02:50N 18°04' W 063°06'0 0.0
2019-Jan-23 02:26N 18°04' W 063°06'0 0.0
2019-Jan-23 01:56N 18°04' W 063°06'0 0.0
2019-Jan-23 01:26N 18°04' W 063°06'0 0.0
2019-Jan-23 00:56N 18°04' W 063°06'0 0.0
2019-Jan-23 00:26N 18°04' W 063°06'0 0.0
2019-Jan-22 23:59N 18°04' W 063°06'0 0.0
2019-Jan-22 23:11N 18°04' W 063°06'0 0.0
2019-Jan-22 22:59N 18°04' W 063°06'0 0.0
2019-Jan-22 22:28N 18°04' W 063°06'0 0.0
2019-Jan-22 21:29N 18°04' W 063°06'0 0.0
2019-Jan-22 20:59N 18°04' W 063°06'0 0.0
2019-Jan-22 20:29N 18°04' W 063°06'0 0.0
2019-Jan-22 19:59N 18°04' W 063°06'0 0.0
2019-Jan-22 18:59N 18°04' W 063°06'0 0.0
2019-Jan-22 18:28N 18°04' W 063°06'0 0.0
2019-Jan-22 17:47N 18°04' W 063°06'0 0.0
2019-Jan-22 17:29N 18°04' W 063°06'0 0.0
2019-Jan-22 16:20N 18°04' W 063°06'0 0.0
2019-Jan-22 15:52N 18°04' W 063°06'0 0.0
2019-Jan-22 15:19N 18°04' W 063°06'0 0.0
2019-Jan-22 14:50N 18°04' W 063°06'0 0.0
2019-Jan-22 14:23N 18°04' W 063°06'0 0.0
2019-Jan-22 13:50N 18°04' W 063°06'0 0.0
2019-Jan-22 13:23N 18°04' W 063°06'0 0.0
2019-Jan-22 12:52N 18°04' W 063°06'0 0.0
2019-Jan-22 12:22N 18°04' W 063°06'0 0.0
2019-Jan-22 11:53N 18°04' W 063°06'0 0.0
2019-Jan-22 11:26N 18°04' W 063°06'0 0.0
2019-Jan-22 10:38N 18°04' W 063°06'0 0.0
2019-Jan-22 10:25N 18°04' W 063°06'0 0.0
2019-Jan-22 09:59N 18°04' W 063°06'0 0.0
2019-Jan-22 09:26N 18°04' W 063°06'0 0.0
2019-Jan-22 08:56N 18°04' W 063°06'0 0.0
2019-Jan-22 08:29N 18°04' W 063°06'0 0.0
2019-Jan-22 07:56N 18°04' W 063°06'0 0.0
2019-Jan-22 07:28N 18°04' W 063°06'0 0.0
2019-Jan-22 06:56N 18°04' W 063°06'0 0.0
2019-Jan-22 06:17N 18°04' W 063°06'0 0.0
2019-Jan-22 05:47N 18°04' W 063°06'0 0.0
2019-Jan-22 05:28N 18°04' W 063°06'0 0.0
2019-Jan-22 04:58N 18°04' W 063°06'0 0.0
2019-Jan-22 04:20N 18°04' W 063°06'0 0.0
2019-Jan-22 03:58N 18°04' W 063°06'0 0.0
2019-Jan-22 02:46N 18°04' W 063°06'0 0.1
2019-Jan-22 02:04N 18°04' W 063°06'0 0.0
2019-Jan-22 01:34N 18°04' W 063°06'0 0.1
2019-Jan-22 01:07N 18°04' W 063°06'0 0.0
2019-Jan-22 00:53N 18°04' W 063°06'0 0.1
2019-Jan-22 00:22N 18°04' W 063°06'0 0.0
2019-Jan-21 23:35N 18°04' W 063°06'0 0.0
2019-Jan-21 23:19N 18°04' W 063°06'0 0.0
2019-Jan-21 22:52N 18°04' W 063°06'0 0.0
2019-Jan-21 22:11N 18°04' W 063°06'0 0.1
2019-Jan-21 21:53N 18°04' W 063°06'1 0.7
2019-Jan-21 21:00N 18°05' W 063°05'  

Dump ship's entire track history